Hundvaag 1 weather for Sep 1999
Month no. 147
Obs.
Da.
Temp. Dew Point Precip. Wind
Speed
Wind gusts Cloud cover Press. Humidity Wind dir. Sunny OPT
01.09.1999 11,7   0,0     0          
02.09.1999 15,7   1,0     0          
03.09.1999 17,5   1,0     0       1  
04.09.1999 16,4   0,0     0          
05.09.1999 14,3   0,0     10       1  
06.09.1999 14,5   0,0     10       1  
07.09.1999 16,3   0,0     8       1  
08.09.1999 11,5   4,0     6       1  
09.09.1999 17,5   1,0     0       1  
10.09.1999 10,1   15,0     8       1  
11.09.1999 15,3   0,0     2       1  
12.09.1999 19,3   0,0     4       1  
13.09.1999 19,0   0,0     0          
14.09.1999 17,1   3,0     1          
15.09.1999 14,5   9,0     0          
16.09.1999 15,7   0,0     0          
17.09.1999 13,6   3,0     0       1  
18.09.1999 13,4   3,0     5       1  
19.09.1999 15,8   0,0     1          
20.09.1999 16,8   0,0     0          
21.09.1999 17,5   0,0     0          
22.09.1999 13,8   2,0     0          
23.09.1999 13,5   1,0     1       1  
24.09.1999 11,6   5,0     10       1  
25.09.1999 13,3   15,0     2       1  
26.09.1999 13,3   4,0     1       1  
27.09.1999 12,4   7,0     0          
28.09.1999 8,5   4,0     10       1  
29.09.1999 9,7   5,0     5          
30.09.1999 12,3   3,0     0          
                       
Avrg/Sum 14,4   86,0     2,8       16